sensor_id;sensor_type;location;lat;lon;timestamp;pressure;altitude;pressure_sealevel;temperature;humidity
70254;BME280;57649;42.968;1.608;2023-04-21T00:00:52;96306.00;;;12.69;77.23
70254;BME280;57649;42.968;1.608;2023-04-21T00:03:18;96301.47;;;12.69;77.31
70254;BME280;57649;42.968;1.608;2023-04-21T00:05:46;96300.22;;;12.72;76.56
70254;BME280;57649;42.968;1.608;2023-04-21T00:08:13;96294.84;;;12.65;76.31
70254;BME280;57649;42.968;1.608;2023-04-21T00:10:38;96286.59;;;12.60;76.46
70254;BME280;57649;42.968;1.608;2023-04-21T00:13:04;96289.88;;;12.69;76.35
70254;BME280;57649;42.968;1.608;2023-04-21T00:15:29;96291.13;;;12.60;76.74
70254;BME280;57649;42.968;1.608;2023-04-21T00:17:54;96280.81;;;12.50;76.96
70254;BME280;57649;42.968;1.608;2023-04-21T00:20:20;96287.03;;;12.44;77.80
70254;BME280;57649;42.968;1.608;2023-04-21T00:22:46;96282.47;;;12.44;77.75
70254;BME280;57649;42.968;1.608;2023-04-21T00:25:11;96287.00;;;12.30;77.44
70254;BME280;57649;42.968;1.608;2023-04-21T00:27:36;96279.41;;;12.27;77.84
70254;BME280;57649;42.968;1.608;2023-04-21T00:30:02;96281.03;;;12.28;78.74
70254;BME280;57649;42.968;1.608;2023-04-21T00:32:27;96273.81;;;12.16;79.38
70254;BME280;57649;42.968;1.608;2023-04-21T00:34:53;96276.91;;;12.19;79.07
70254;BME280;57649;42.968;1.608;2023-04-21T00:37:18;96270.31;;;12.15;78.93
70254;BME280;57649;42.968;1.608;2023-04-21T00:39:44;96278.34;;;12.08;79.38
70254;BME280;57649;42.968;1.608;2023-04-21T00:42:09;96264.28;;;12.00;79.69
70254;BME280;57649;42.968;1.608;2023-04-21T00:44:35;96260.56;;;11.94;80.40
70254;BME280;57649;42.968;1.608;2023-04-21T00:47:00;96274.19;;;11.99;79.94
70254;BME280;57649;42.968;1.608;2023-04-21T00:49:26;96266.16;;;11.99;79.72
70254;BME280;57649;42.968;1.608;2023-04-21T00:51:52;96277.84;;;11.85;80.50
70254;BME280;57649;42.968;1.608;2023-04-21T00:54:18;96262.84;;;11.90;79.83
70254;BME280;57649;42.968;1.608;2023-04-21T00:56:44;96272.91;;;11.88;79.84
70254;BME280;57649;42.968;1.608;2023-04-21T00:59:09;96265.69;;;11.82;80.12
70254;BME280;57649;42.968;1.608;2023-04-21T01:01:35;96254.56;;;11.79;79.88
70254;BME280;57649;42.968;1.608;2023-04-21T01:04:02;96261.97;;;11.77;80.61
70254;BME280;57649;42.968;1.608;2023-04-21T01:06:30;96258.69;;;11.74;81.42
70254;BME280;57649;42.968;1.608;2023-04-21T01:08:56;96252.06;;;11.64;80.98
70254;BME280;57649;42.968;1.608;2023-04-21T01:11:22;96244.22;;;11.62;81.13
70254;BME280;57649;42.968;1.608;2023-04-21T01:13:47;96247.72;;;11.56;81.34
70254;BME280;57649;42.968;1.608;2023-04-21T01:16:16;96246.47;;;11.59;81.17
70254;BME280;57649;42.968;1.608;2023-04-21T01:18:43;96244.84;;;11.58;80.75
70254;BME280;57649;42.968;1.608;2023-04-21T01:21:09;96246.28;;;11.60;80.91
70254;BME280;57649;42.968;1.608;2023-04-21T01:23:35;96243.59;;;11.60;81.06
70254;BME280;57649;42.968;1.608;2023-04-21T01:26:01;96242.16;;;11.64;80.29
70254;BME280;57649;42.968;1.608;2023-04-21T01:28:26;96249.94;;;11.46;80.42
70254;BME280;57649;42.968;1.608;2023-04-21T01:30:52;96243.75;;;11.52;80.55
70254;BME280;57649;42.968;1.608;2023-04-21T01:33:18;96248.31;;;11.45;80.83
70254;BME280;57649;42.968;1.608;2023-04-21T01:35:45;96246.25;;;11.47;81.10
70254;BME280;57649;42.968;1.608;2023-04-21T01:38:10;96246.63;;;11.44;80.91
70254;BME280;57649;42.968;1.608;2023-04-21T01:40:36;96238.41;;;11.45;81.47
70254;BME280;57649;42.968;1.608;2023-04-21T01:43:03;96239.22;;;11.46;81.50
70254;BME280;57649;42.968;1.608;2023-04-21T01:45:30;96248.09;;;11.53;81.46
70254;BME280;57649;42.968;1.608;2023-04-21T01:47:55;96249.78;;;11.54;81.56
70254;BME280;57649;42.968;1.608;2023-04-21T01:50:21;96244.19;;;11.49;80.96
70254;BME280;57649;42.968;1.608;2023-04-21T01:52:46;96245.78;;;11.36;81.48
70254;BME280;57649;42.968;1.608;2023-04-21T01:55:12;96243.84;;;11.17;82.17
70254;BME280;57649;42.968;1.608;2023-04-21T01:57:39;96245.56;;;11.25;82.15
70254;BME280;57649;42.968;1.608;2023-04-21T02:00:05;96240.16;;;11.18;82.18
70254;BME280;57649;42.968;1.608;2023-04-21T02:02:31;96245.13;;;11.21;81.98
70254;BME280;57649;42.968;1.608;2023-04-21T02:04:56;96247.56;;;11.16;82.31
70254;BME280;57649;42.968;1.608;2023-04-21T02:07:22;96240.56;;;11.15;82.82
70254;BME280;57649;42.968;1.608;2023-04-21T02:09:47;96246.66;;;10.95;83.63
70254;BME280;57649;42.968;1.608;2023-04-21T02:12:12;96252.03;;;11.02;83.56
70254;BME280;57649;42.968;1.608;2023-04-21T02:14:38;96238.22;;;10.98;84.02
70254;BME280;57649;42.968;1.608;2023-04-21T02:17:03;96242.09;;;10.89;84.02
70254;BME280;57649;42.968;1.608;2023-04-21T02:19:29;96255.91;;;10.86;84.88
70254;BME280;57649;42.968;1.608;2023-04-21T02:21:54;96263.94;;;10.86;84.59
70254;BME280;57649;42.968;1.608;2023-04-21T02:24:20;96262.09;;;10.93;84.30
70254;BME280;57649;42.968;1.608;2023-04-21T02:26:45;96253.22;;;10.86;84.64
70254;BME280;57649;42.968;1.608;2023-04-21T02:29:11;96258.97;;;10.83;84.05
70254;BME280;57649;42.968;1.608;2023-04-21T02:31:37;96266.78;;;10.85;83.97
70254;BME280;57649;42.968;1.608;2023-04-21T02:34:03;96269.00;;;10.74;84.18
70254;BME280;57649;42.968;1.608;2023-04-21T02:36:28;96268.28;;;10.59;83.92
70254;BME280;57649;42.968;1.608;2023-04-21T02:38:53;96264.75;;;10.52;85.33
70254;BME280;57649;42.968;1.608;2023-04-21T02:41:19;96269.50;;;10.56;85.52
70254;BME280;57649;42.968;1.608;2023-04-21T02:43:44;96265.31;;;10.47;85.82
70254;BME280;57649;42.968;1.608;2023-04-21T02:46:10;96269.94;;;10.32;85.03
70254;BME280;57649;42.968;1.608;2023-04-21T02:48:35;96267.81;;;10.27;85.39
70254;BME280;57649;42.968;1.608;2023-04-21T02:51:01;96262.06;;;10.02;85.46
70254;BME280;57649;42.968;1.608;2023-04-21T02:53:26;96254.28;;;10.07;85.81
70254;BME280;57649;42.968;1.608;2023-04-21T02:55:52;96267.97;;;10.19;87.17
70254;BME280;57649;42.968;1.608;2023-04-21T02:58:17;96270.44;;;10.20;87.45
70254;BME280;57649;42.968;1.608;2023-04-21T03:00:42;96268.00;;;10.26;86.25
70254;BME280;57649;42.968;1.608;2023-04-21T03:03:08;96265.72;;;10.23;86.15
70254;BME280;57649;42.968;1.608;2023-04-21T03:05:33;96271.97;;;10.30;85.63
70254;BME280;57649;42.968;1.608;2023-04-21T03:07:59;96267.19;;;10.25;85.31
70254;BME280;57649;42.968;1.608;2023-04-21T03:10:24;96278.47;;;10.20;85.39
70254;BME280;57649;42.968;1.608;2023-04-21T03:12:50;96273.00;;;10.07;86.05
70254;BME280;57649;42.968;1.608;2023-04-21T03:15:16;96272.09;;;10.21;85.60
70254;BME280;57649;42.968;1.608;2023-04-21T03:17:43;96272.09;;;10.21;84.80
70254;BME280;57649;42.968;1.608;2023-04-21T03:20:09;96272.94;;;10.22;85.52
70254;BME280;57649;42.968;1.608;2023-04-21T03:22:36;96273.31;;;10.19;85.01
70254;BME280;57649;42.968;1.608;2023-04-21T03:25:02;96280.63;;;10.10;85.23
70254;BME280;57649;42.968;1.608;2023-04-21T03:27:28;96281.22;;;10.06;85.96
70254;BME280;57649;42.968;1.608;2023-04-21T03:29:53;96276.31;;;10.09;86.05
70254;BME280;57649;42.968;1.608;2023-04-21T03:32:19;96273.25;;;10.12;85.31
70254;BME280;57649;42.968;1.608;2023-04-21T03:34:44;96277.03;;;9.96;85.98
70254;BME280;57649;42.968;1.608;2023-04-21T03:37:10;96266.00;;;9.85;87.38
70254;BME280;57649;42.968;1.608;2023-04-21T03:39:35;96275.69;;;9.86;87.77
70254;BME280;57649;42.968;1.608;2023-04-21T03:42:01;96274.41;;;9.81;87.11
70254;BME280;57649;42.968;1.608;2023-04-21T03:44:26;96268.63;;;9.78;87.14
70254;BME280;57649;42.968;1.608;2023-04-21T03:46:53;96272.13;;;9.78;86.57
70254;BME280;57649;42.968;1.608;2023-04-21T03:49:19;96274.72;;;9.72;86.94
70254;BME280;57649;42.968;1.608;2023-04-21T03:51:45;96274.66;;;9.65;87.65
70254;BME280;57649;42.968;1.608;2023-04-21T03:54:10;96273.66;;;9.66;87.24
70254;BME280;57649;42.968;1.608;2023-04-21T03:56:36;96281.03;;;9.64;87.03
70254;BME280;57649;42.968;1.608;2023-04-21T03:59:01;96280.41;;;9.62;87.84
70254;BME280;57649;42.968;1.608;2023-04-21T04:01:26;96272.31;;;9.55;87.98
70254;BME280;57649;42.968;1.608;2023-04-21T04:03:52;96270.59;;;9.48;88.11
70254;BME280;57649;42.968;1.608;2023-04-21T04:06:17;96282.16;;;9.55;88.36
70254;BME280;57649;42.968;1.608;2023-04-21T04:08:43;96282.91;;;9.49;89.07
70254;BME280;57649;42.968;1.608;2023-04-21T04:11:08;96278.31;;;9.42;88.34
70254;BME280;57649;42.968;1.608;2023-04-21T04:13:33;96282.03;;;9.41;88.81
70254;BME280;57649;42.968;1.608;2023-04-21T04:15:59;96288.00;;;9.43;89.59
70254;BME280;57649;42.968;1.608;2023-04-21T04:18:25;96272.44;;;9.32;89.03
70254;BME280;57649;42.968;1.608;2023-04-21T04:20:50;96278.69;;;9.39;89.11
70254;BME280;57649;42.968;1.608;2023-04-21T04:23:16;96273.75;;;9.36;88.86
70254;BME280;57649;42.968;1.608;2023-04-21T04:25:41;96280.38;;;9.40;88.90
70254;BME280;57649;42.968;1.608;2023-04-21T04:28:07;96289.09;;;9.49;89.37
70254;BME280;57649;42.968;1.608;2023-04-21T04:30:33;96281.63;;;9.44;89.18
70254;BME280;57649;42.968;1.608;2023-04-21T04:33:00;96284.03;;;9.39;90.01
70254;BME280;57649;42.968;1.608;2023-04-21T04:35:25;96283.72;;;9.28;89.92
70254;BME280;57649;42.968;1.608;2023-04-21T04:37:51;96274.97;;;9.19;90.02
70254;BME280;57649;42.968;1.608;2023-04-21T04:40:17;96282.88;;;9.27;90.64
70254;BME280;57649;42.968;1.608;2023-04-21T04:42:43;96274.69;;;9.14;90.86
70254;BME280;57649;42.968;1.608;2023-04-21T04:45:11;96282.06;;;9.12;90.78
70254;BME280;57649;42.968;1.608;2023-04-21T04:47:38;96292.94;;;9.10;91.14
70254;BME280;57649;42.968;1.608;2023-04-21T04:50:04;96286.13;;;9.08;90.52
70254;BME280;57649;42.968;1.608;2023-04-21T04:52:30;96293.97;;;9.09;90.56
70254;BME280;57649;42.968;1.608;2023-04-21T04:54:55;96296.34;;;9.04;90.02
70254;BME280;57649;42.968;1.608;2023-04-21T04:57:21;96298.69;;;8.92;90.90
70254;BME280;57649;42.968;1.608;2023-04-21T04:59:46;96300.31;;;8.93;90.56
70254;BME280;57649;42.968;1.608;2023-04-21T05:02:12;96284.13;;;8.80;90.50
70254;BME280;57649;42.968;1.608;2023-04-21T05:04:37;96305.59;;;8.86;90.75
70254;BME280;57649;42.968;1.608;2023-04-21T05:07:03;96296.66;;;8.94;90.45
70254;BME280;57649;42.968;1.608;2023-04-21T05:09:30;96302.91;;;8.86;91.00
70254;BME280;57649;42.968;1.608;2023-04-21T05:11:55;96303.44;;;8.97;91.30
70254;BME280;57649;42.968;1.608;2023-04-21T05:14:21;96305.84;;;8.92;90.40
70254;BME280;57649;42.968;1.608;2023-04-21T05:16:46;96301.97;;;8.94;90.45
70254;BME280;57649;42.968;1.608;2023-04-21T05:19:11;96300.03;;;8.88;90.10
70254;BME280;57649;42.968;1.608;2023-04-21T05:21:37;96311.00;;;8.93;90.67
70254;BME280;57649;42.968;1.608;2023-04-21T05:24:02;96295.78;;;8.94;90.57
70254;BME280;57649;42.968;1.608;2023-04-21T05:26:28;96308.97;;;8.95;90.49
70254;BME280;57649;42.968;1.608;2023-04-21T05:28:55;96310.91;;;9.01;90.15
70254;BME280;57649;42.968;1.608;2023-04-21T05:31:21;96294.25;;;8.99;90.39
70254;BME280;57649;42.968;1.608;2023-04-21T05:33:47;96306.50;;;9.09;90.38
70254;BME280;57649;42.968;1.608;2023-04-21T05:36:12;96310.00;;;8.94;90.30
70254;BME280;57649;42.968;1.608;2023-04-21T05:38:38;96305.41;;;9.03;90.77
70254;BME280;57649;42.968;1.608;2023-04-21T05:41:04;96295.34;;;9.05;90.64
70254;BME280;57649;42.968;1.608;2023-04-21T05:43:30;96297.16;;;9.04;90.75
70254;BME280;57649;42.968;1.608;2023-04-21T05:45:58;96296.34;;;9.04;90.76
70254;BME280;57649;42.968;1.608;2023-04-21T05:48:24;96299.19;;;9.17;90.32
70254;BME280;57649;42.968;1.608;2023-04-21T05:50:49;96291.16;;;9.17;89.42
70254;BME280;57649;42.968;1.608;2023-04-21T05:53:15;96292.56;;;9.13;89.54
70254;BME280;57649;42.968;1.608;2023-04-21T05:55:41;96303.16;;;9.06;89.75
70254;BME280;57649;42.968;1.608;2023-04-21T05:58:06;96306.47;;;8.94;90.18
70254;BME280;57649;42.968;1.608;2023-04-21T06:00:32;96308.25;;;9.01;89.48
70254;BME280;57649;42.968;1.608;2023-04-21T06:02:57;96310.44;;;8.98;89.65
70254;BME280;57649;42.968;1.608;2023-04-21T06:05:22;96311.44;;;8.97;89.45
70254;BME280;57649;42.968;1.608;2023-04-21T06:07:48;96323.97;;;9.11;89.47
70254;BME280;57649;42.968;1.608;2023-04-21T06:10:13;96318.16;;;9.22;89.21
70254;BME280;57649;42.968;1.608;2023-04-21T06:12:39;96326.47;;;9.13;89.60
70254;BME280;57649;42.968;1.608;2023-04-21T06:15:05;96327.72;;;9.17;89.62
70254;BME280;57649;42.968;1.608;2023-04-21T06:17:30;96332.59;;;9.28;88.71
70254;BME280;57649;42.968;1.608;2023-04-21T06:19:56;96332.50;;;9.36;89.39
70254;BME280;57649;42.968;1.608;2023-04-21T06:22:22;96341.53;;;9.35;89.54
70254;BME280;57649;42.968;1.608;2023-04-21T06:24:47;96328.09;;;9.43;89.29
70254;BME280;57649;42.968;1.608;2023-04-21T06:27:13;96324.78;;;9.41;89.52
70254;BME280;57649;42.968;1.608;2023-04-21T06:29:39;96324.66;;;9.50;89.45
70254;BME280;57649;42.968;1.608;2023-04-21T06:32:06;96336.53;;;9.47;90.23
70254;BME280;57649;42.968;1.608;2023-04-21T06:34:31;96329.50;;;9.61;89.19
70254;BME280;57649;42.968;1.608;2023-04-21T06:36:56;96334.78;;;9.54;89.88
70254;BME280;57649;42.968;1.608;2023-04-21T06:39:22;96326.38;;;9.57;90.30
70254;BME280;57649;42.968;1.608;2023-04-21T06:41:47;96325.44;;;9.65;91.42
70254;BME280;57649;42.968;1.608;2023-04-21T06:44:13;96323.81;;;9.86;89.40
70254;BME280;57649;42.968;1.608;2023-04-21T06:46:39;96325.91;;;9.90;89.32
70254;BME280;57649;42.968;1.608;2023-04-21T06:49:08;96320.38;;;9.92;89.48
70254;BME280;57649;42.968;1.608;2023-04-21T06:51:33;96324.94;;;10.19;87.97
70254;BME280;57649;42.968;1.608;2023-04-21T06:53:59;96314.88;;;10.21;87.30
70254;BME280;57649;42.968;1.608;2023-04-21T06:56:28;96313.28;;;10.27;86.83
70254;BME280;57649;42.968;1.608;2023-04-21T06:58:55;96307.69;;;10.44;85.73
70254;BME280;57649;42.968;1.608;2023-04-21T07:01:21;96312.00;;;10.73;84.72
70254;BME280;57649;42.968;1.608;2023-04-21T07:03:48;96301.88;;;10.96;83.77
70254;BME280;57649;42.968;1.608;2023-04-21T07:06:14;96307.88;;;10.70;83.98
70254;BME280;57649;42.968;1.608;2023-04-21T07:08:39;96306.53;;;10.53;85.48
70254;BME280;57649;42.968;1.608;2023-04-21T07:11:05;96309.44;;;10.58;85.99
70254;BME280;57649;42.968;1.608;2023-04-21T07:13:31;96300.50;;;10.44;86.72
70254;BME280;57649;42.968;1.608;2023-04-21T07:15:56;96305.19;;;10.42;86.27
70254;BME280;57649;42.968;1.608;2023-04-21T07:18:22;96310.41;;;10.50;86.51
70254;BME280;57649;42.968;1.608;2023-04-21T07:20:47;96309.41;;;10.51;86.23
70254;BME280;57649;42.968;1.608;2023-04-21T07:23:12;96296.66;;;10.53;86.60
70254;BME280;57649;42.968;1.608;2023-04-21T07:25:38;96310.06;;;10.60;86.75
70254;BME280;57649;42.968;1.608;2023-04-21T07:28:03;96310.25;;;10.58;87.51
70254;BME280;57649;42.968;1.608;2023-04-21T07:30:29;96313.88;;;10.72;87.09
70254;BME280;57649;42.968;1.608;2023-04-21T07:32:56;96307.28;;;10.75;86.61
70254;BME280;57649;42.968;1.608;2023-04-21T07:35:21;96300.13;;;10.82;87.22
70254;BME280;57649;42.968;1.608;2023-04-21T07:37:47;96293.13;;;10.81;87.07
70254;BME280;57649;42.968;1.608;2023-04-21T07:40:13;96298.75;;;10.93;87.01
70254;BME280;57649;42.968;1.608;2023-04-21T07:42:38;96300.00;;;10.90;86.76
70254;BME280;57649;42.968;1.608;2023-04-21T07:45:04;96292.81;;;10.97;87.34
70254;BME280;57649;42.968;1.608;2023-04-21T07:47:30;96289.56;;;11.09;86.60
70254;BME280;57649;42.968;1.608;2023-04-21T07:49:55;96302.63;;;11.25;86.04
70254;BME280;57649;42.968;1.608;2023-04-21T07:52:21;96299.78;;;11.33;86.11
70254;BME280;57649;42.968;1.608;2023-04-21T07:54:47;96289.91;;;11.41;85.27
70254;BME280;57649;42.968;1.608;2023-04-21T07:57:13;96295.59;;;11.72;83.31
70254;BME280;57649;42.968;1.608;2023-04-21T07:59:38;96293.41;;;12.03;82.54
70254;BME280;57649;42.968;1.608;2023-04-21T08:02:04;96281.88;;;12.42;80.04
70254;BME280;57649;42.968;1.608;2023-04-21T08:04:29;96295.41;;;12.94;77.70
70254;BME280;57649;42.968;1.608;2023-04-21T08:06:55;96292.63;;;13.41;75.74
70254;BME280;57649;42.968;1.608;2023-04-21T08:09:20;96282.81;;;13.98;72.87
70254;BME280;57649;42.968;1.608;2023-04-21T08:11:45;96281.31;;;14.59;70.77
70254;BME280;57649;42.968;1.608;2023-04-21T08:14:11;96273.00;;;15.05;68.25
70254;BME280;57649;42.968;1.608;2023-04-21T08:16:37;96272.81;;;15.55;66.22
70254;BME280;57649;42.968;1.608;2023-04-21T08:19:03;96269.66;;;16.07;63.63
70254;BME280;57649;42.968;1.608;2023-04-21T08:21:28;96258.22;;;16.47;62.75
70254;BME280;57649;42.968;1.608;2023-04-21T08:23:54;96271.06;;;16.99;61.66
70254;BME280;57649;42.968;1.608;2023-04-21T08:26:22;96252.91;;;17.35;61.20
70254;BME280;57649;42.968;1.608;2023-04-21T08:28:48;96244.16;;;17.44;60.32
70254;BME280;57649;42.968;1.608;2023-04-21T08:31:14;96256.75;;;17.79;59.36
70254;BME280;57649;42.968;1.608;2023-04-21T08:33:40;96244.59;;;17.82;58.76
70254;BME280;57649;42.968;1.608;2023-04-21T08:36:05;96239.34;;;17.46;59.40
70254;BME280;57649;42.968;1.608;2023-04-21T08:38:31;96244.59;;;17.82;59.26
70254;BME280;57649;42.968;1.608;2023-04-21T08:40:58;96250.50;;;17.91;58.71
70254;BME280;57649;42.968;1.608;2023-04-21T08:43:24;96244.06;;;18.25;57.38
70254;BME280;57649;42.968;1.608;2023-04-21T08:45:51;96238.81;;;18.19;57.68
70254;BME280;57649;42.968;1.608;2023-04-21T08:48:20;96234.88;;;18.43;57.06
70254;BME280;57649;42.968;1.608;2023-04-21T08:50:48;96231.38;;;18.99;56.33
70254;BME280;57649;42.968;1.608;2023-04-21T08:53:14;96230.00;;;18.79;55.54
70254;BME280;57649;42.968;1.608;2023-04-21T08:55:40;96226.41;;;18.91;55.86
70254;BME280;57649;42.968;1.608;2023-04-21T08:58:06;96230.50;;;19.15;54.79
70254;BME280;57649;42.968;1.608;2023-04-21T09:00:37;96227.13;;;19.47;54.64
70254;BME280;57649;42.968;1.608;2023-04-21T09:03:02;96223.78;;;19.18;54.91
70254;BME280;57649;42.968;1.608;2023-04-21T09:05:31;96225.28;;;19.31;54.67
70254;BME280;57649;42.968;1.608;2023-04-21T09:08:13;96220.84;;;19.47;55.09
70254;BME280;57649;42.968;1.608;2023-04-21T09:10:50;96228.34;;;19.84;53.30
70254;BME280;57649;42.968;1.608;2023-04-21T09:13:19;96223.53;;;19.91;52.99
70254;BME280;57649;42.968;1.608;2023-04-21T09:15:48;96226.41;;;20.06;53.07
70254;BME280;57649;42.968;1.608;2023-04-21T09:18:16;96228.69;;;20.52;51.18
70254;BME280;57649;42.968;1.608;2023-04-21T09:20:43;96221.91;;;20.54;51.99
70254;BME280;57649;42.968;1.608;2023-04-21T09:23:09;96213.56;;;20.29;52.11
70254;BME280;57649;42.968;1.608;2023-04-21T09:25:38;96220.09;;;20.28;52.31
70254;BME280;57649;42.968;1.608;2023-04-21T09:28:08;96213.88;;;19.78;53.65
70254;BME280;57649;42.968;1.608;2023-04-21T09:30:38;96212.22;;;19.99;52.44
70254;BME280;57649;42.968;1.608;2023-04-21T09:33:04;96203.56;;;20.02;50.94
70254;BME280;57649;42.968;1.608;2023-04-21T09:35:34;96205.59;;;20.54;49.58
70254;BME280;57649;42.968;1.608;2023-04-21T09:38:02;96212.22;;;20.64;49.17
70254;BME280;57649;42.968;1.608;2023-04-21T09:40:30;96207.38;;;20.71;49.47
70254;BME280;57649;42.968;1.608;2023-04-21T09:42:56;96209.06;;;20.12;49.14
70254;BME280;57649;42.968;1.608;2023-04-21T09:45:25;96194.84;;;20.65;49.39
70254;BME280;57649;42.968;1.608;2023-04-21T09:47:54;96199.16;;;20.66;49.39
70254;BME280;57649;42.968;1.608;2023-04-21T09:50:21;96185.75;;;20.96;49.08
70254;BME280;57649;42.968;1.608;2023-04-21T09:52:49;96172.25;;;21.12;48.78
70254;BME280;57649;42.968;1.608;2023-04-21T09:55:15;96179.97;;;21.41;48.43
70254;BME280;57649;42.968;1.608;2023-04-21T09:57:43;96185.28;;;21.05;48.92
70254;BME280;57649;42.968;1.608;2023-04-21T10:00:11;96175.50;;;21.19;49.34
70254;BME280;57649;42.968;1.608;2023-04-21T10:02:42;96179.63;;;20.36;50.22
70254;BME280;57649;42.968;1.608;2023-04-21T10:05:09;96179.22;;;20.92;50.20
70254;BME280;57649;42.968;1.608;2023-04-21T10:07:35;96169.75;;;21.05;49.26
70254;BME280;57649;42.968;1.608;2023-04-21T10:10:00;96171.72;;;21.20;49.07
70254;BME280;57649;42.968;1.608;2023-04-21T10:12:26;96165.00;;;21.38;48.54
70254;BME280;57649;42.968;1.608;2023-04-21T10:14:56;96167.59;;;21.96;47.84
70254;BME280;57649;42.968;1.608;2023-04-21T10:17:23;96168.06;;;21.62;47.77
70254;BME280;57649;42.968;1.608;2023-04-21T10:22:29;96161.00;;;21.56;48.91
70254;BME280;57649;42.968;1.608;2023-04-21T10:24:56;96182.47;;;20.89;49.04
70254;BME280;57649;42.968;1.608;2023-04-21T10:27:41;96181.16;;;21.70;47.56
70254;BME280;57649;42.968;1.608;2023-04-21T10:30:33;96176.28;;;21.88;48.12
70254;BME280;57649;42.968;1.608;2023-04-21T10:33:03;96170.28;;;21.65;47.62
70254;BME280;57649;42.968;1.608;2023-04-21T10:35:58;96166.78;;;21.85;46.39
70254;BME280;57649;42.968;1.608;2023-04-21T10:38:39;96164.88;;;22.06;45.93
70254;BME280;57649;42.968;1.608;2023-04-21T10:41:30;96168.63;;;21.69;47.47
70254;BME280;57649;42.968;1.608;2023-04-21T10:44:00;96175.16;;;21.58;48.03
70254;BME280;57649;42.968;1.608;2023-04-21T10:49:31;96171.34;;;21.54;48.19
70254;BME280;57649;42.968;1.608;2023-04-21T10:52:03;96167.94;;;21.31;48.26
70254;BME280;57649;42.968;1.608;2023-04-21T10:57:08;96164.59;;;22.13;47.21
70254;BME280;57649;42.968;1.608;2023-04-21T10:59:34;96175.19;;;21.73;47.65
70254;BME280;57649;42.968;1.608;2023-04-21T11:02:20;96171.38;;;21.75;47.27
70254;BME280;57649;42.968;1.608;2023-04-21T11:04:50;96170.63;;;22.46;46.63
70254;BME280;57649;42.968;1.608;2023-04-21T11:07:17;96172.47;;;22.81;45.53
70254;BME280;57649;42.968;1.608;2023-04-21T11:09:45;96174.94;;;21.96;46.94
70254;BME280;57649;42.968;1.608;2023-04-21T11:12:13;96163.22;;;21.80;47.24
70254;BME280;57649;42.968;1.608;2023-04-21T11:14:40;96152.91;;;22.33;46.40
70254;BME280;57649;42.968;1.608;2023-04-21T11:17:14;96161.09;;;22.33;46.69
70254;BME280;57649;42.968;1.608;2023-04-21T11:19:41;96161.28;;;22.78;46.02
70254;BME280;57649;42.968;1.608;2023-04-21T11:22:06;96170.81;;;21.78;47.82
70254;BME280;57649;42.968;1.608;2023-04-21T11:24:32;96169.56;;;21.22;49.53
70254;BME280;57649;42.968;1.608;2023-04-21T11:26:58;96165.97;;;22.00;48.06
70254;BME280;57649;42.968;1.608;2023-04-21T11:29:26;96151.53;;;22.41;47.13
70254;BME280;57649;42.968;1.608;2023-04-21T11:31:53;96162.72;;;22.44;47.14
70254;BME280;57649;42.968;1.608;2023-04-21T11:34:19;96174.72;;;22.28;47.08
70254;BME280;57649;42.968;1.608;2023-04-21T11:36:46;96154.72;;;22.84;45.15
70254;BME280;57649;42.968;1.608;2023-04-21T11:39:14;96156.19;;;22.30;47.87
70254;BME280;57649;42.968;1.608;2023-04-21T11:41:42;96164.31;;;22.25;48.56
70254;BME280;57649;42.968;1.608;2023-04-21T11:44:09;96156.63;;;22.88;47.49
70254;BME280;57649;42.968;1.608;2023-04-21T11:46:35;96153.16;;;22.21;49.16
70254;BME280;57649;42.968;1.608;2023-04-21T11:49:10;96153.09;;;22.78;47.74
70254;BME280;57649;42.968;1.608;2023-04-21T11:51:41;96154.50;;;22.60;49.10
70254;BME280;57649;42.968;1.608;2023-04-21T11:54:08;96156.97;;;22.51;49.25
70254;BME280;57649;42.968;1.608;2023-04-21T11:56:39;96156.50;;;23.30;47.64
70254;BME280;57649;42.968;1.608;2023-04-21T11:59:09;96166.34;;;23.25;47.60
70254;BME280;57649;42.968;1.608;2023-04-21T12:01:42;96159.59;;;23.08;47.72
70254;BME280;57649;42.968;1.608;2023-04-21T12:04:13;96160.44;;;23.08;47.71
70254;BME280;57649;42.968;1.608;2023-04-21T12:06:38;96150.94;;;23.50;46.85
70254;BME280;57649;42.968;1.608;2023-04-21T12:09:04;96153.69;;;23.50;46.49
70254;BME280;57649;42.968;1.608;2023-04-21T12:11:30;96145.38;;;24.10;46.18
70254;BME280;57649;42.968;1.608;2023-04-21T12:13:57;96164.69;;;23.30;46.88
70254;BME280;57649;42.968;1.608;2023-04-21T12:16:26;96163.75;;;23.55;46.63
70254;BME280;57649;42.968;1.608;2023-04-21T12:18:53;96165.06;;;22.97;47.39
70254;BME280;57649;42.968;1.608;2023-04-21T12:21:18;96161.53;;;22.86;48.49
70254;BME280;57649;42.968;1.608;2023-04-21T12:23:43;96169.72;;;22.86;49.57
70254;BME280;57649;42.968;1.608;2023-04-21T12:26:10;96167.00;;;22.76;49.93
70254;BME280;57649;42.968;1.608;2023-04-21T12:28:36;96153.41;;;22.66;48.62
70254;BME280;57649;42.968;1.608;2023-04-21T12:31:02;96156.69;;;22.68;49.56
70254;BME280;57649;42.968;1.608;2023-04-21T12:33:27;96147.84;;;22.97;50.54
70254;BME280;57649;42.968;1.608;2023-04-21T12:35:53;96159.88;;;23.01;50.89
70254;BME280;57649;42.968;1.608;2023-04-21T12:38:18;96165.44;;;22.49;51.81
70254;BME280;57649;42.968;1.608;2023-04-21T12:40:44;96162.41;;;22.66;52.05
70254;BME280;57649;42.968;1.608;2023-04-21T12:43:09;96156.44;;;22.28;51.51
70254;BME280;57649;42.968;1.608;2023-04-21T12:45:35;96155.88;;;22.57;52.19
70254;BME280;57649;42.968;1.608;2023-04-21T12:48:00;96152.34;;;22.36;52.44
70254;BME280;57649;42.968;1.608;2023-04-21T12:50:27;96159.69;;;22.66;51.02
70254;BME280;57649;42.968;1.608;2023-04-21T12:52:53;96173.53;;;22.91;50.51
70254;BME280;57649;42.968;1.608;2023-04-21T12:55:20;96182.34;;;22.26;51.64
70254;BME280;57649;42.968;1.608;2023-04-21T12:57:45;96173.06;;;21.96;52.42
70254;BME280;57649;42.968;1.608;2023-04-21T13:00:12;96177.66;;;22.01;53.38
70254;BME280;57649;42.968;1.608;2023-04-21T13:02:39;96177.06;;;21.63;53.66
70254;BME280;57649;42.968;1.608;2023-04-21T13:05:05;96169.63;;;21.43;54.45
70254;BME280;57649;42.968;1.608;2023-04-21T13:07:32;96165.91;;;21.64;54.37